Terminal Aerodrome Forecast
Issued by NWS

Home | Current Version | Previous Version | Text Only | Print | Product List | Glossary On
Versions: 1 2 3 4 5 6 7 8 9 10 11 12 13
152
FTUS44 KLZK 231720
TAFLLQ
TAF
KLLQ 231720Z 2318/2418 VRB05KT P6SM VCTS BKN050CB BKN250
     FM232100 18007KT P6SM SCT040 BKN100
      TEMPO 2322/2402 VRB15G25KT 3SM TSRA BKN040CB
     FM240200 17006KT P6SM SCT050
     FM240600 16003KT P6SM SCT250
     FM241500 17006KT P6SM SCT050 SCT250=

USA.gov is the U.S. government's official web portal to all federal, state and local government web resources and services.